Time;durP1;ratioP1;P1;durP2;ratioP2;P2;SDS_P1;SDS_P2;PMS_P1;PMS_P2;Temp;Humidity;BMP_temperature;BMP_pressure;BME280_temperature;BME280_humidity;BME280_pressure;Samples;Min_cycle;Max_cycle;Signal;HPM_P1;HPM_P2
2022/02/12 00:00:01;;;;;;;9.53;4.80;;;;;;;;;;5041570;28;20477;-79
2022/02/12 00:02:27;;;;;;;6.00;4.60;;;;;;;;;;5041731;28;20468;-79
2022/02/12 00:04:53;;;;;;;9.47;4.40;;;;;;;;;;5041585;28;20440;-78
2022/02/12 00:07:19;;;;;;;6.17;4.40;;;;;;;;;;5041323;28;20968;-78
2022/02/12 00:09:45;;;;;;;6.07;4.47;;;;;;;;;;5041106;28;20406;-78
2022/02/12 00:12:11;;;;;;;7.17;4.07;;;;;;;;;;5040030;28;20403;-77
2022/02/12 00:14:37;;;;;;;9.20;4.50;;;;;;;;;;5036861;28;20413;-77
2022/02/12 00:17:03;;;;;;;7.30;4.33;;;;;;;;;;5036928;28;20398;-77
2022/02/12 00:19:29;;;;;;;5.03;4.07;;;;;;;;;;5036428;28;20422;-78
2022/02/12 00:21:55;;;;;;;6.30;4.20;;;;;;;;;;5037651;28;20458;-78
2022/02/12 00:24:21;;;;;;;5.37;3.90;;;;;;;;;;5037468;28;20427;-78
2022/02/12 00:26:47;;;;;;;5.90;3.70;;;;;;;;;;5037420;28;20912;-78
2022/02/12 00:29:13;;;;;;;6.10;4.67;;;;;;;;;;5037653;28;20420;-78
2022/02/12 00:31:39;;;;;;;7.83;4.20;;;;;;;;;;5038226;28;20410;-79
2022/02/12 00:34:05;;;;;;;16.60;5.50;;;;;;;;;;5039488;28;20465;-79
2022/02/12 00:36:32;;;;;;;4.57;4.07;;;;;;;;;;5039961;28;20436;-79
2022/02/12 00:38:58;;;;;;;5.73;4.67;;;;;;;;;;5040070;28;20403;-79
2022/02/12 00:41:24;;;;;;;7.43;5.13;;;;;;;;;;5040049;28;20867;-79
2022/02/12 00:43:50;;;;;;;7.97;4.50;;;;;;;;;;5038581;28;20445;-79
2022/02/12 00:46:16;;;;;;;6.23;4.90;;;;;;;;;;5039469;28;20409;-79
2022/02/12 00:48:42;;;;;;;6.17;4.67;;;;;;;;;;5039372;28;20843;-78
2022/02/12 00:51:08;;;;;;;7.20;4.60;;;;;;;;;;5038331;28;20899;-78
2022/02/12 00:53:34;;;;;;;7.33;3.90;;;;;;;;;;5039167;28;20536;-78
2022/02/12 00:56:00;;;;;;;9.83;5.20;;;;;;;;;;5039827;28;20406;-78
2022/02/12 00:58:26;;;;;;;6.03;4.27;;;;;;;;;;5040178;28;20472;-79
2022/02/12 01:00:52;;;;;;;8.67;4.93;;;;;;;;;;5039334;28;20882;-78
2022/02/12 01:03:18;;;;;;;8.40;5.00;;;;;;;;;;5038151;28;20769;-78
2022/02/12 01:05:44;;;;;;;7.00;5.20;;;;;;;;;;5039459;28;20403;-78
2022/02/12 01:08:10;;;;;;;5.70;4.80;;;;;;;;;;5038681;28;20490;-78
2022/02/12 01:10:36;;;;;;;7.30;4.33;;;;;;;;;;5039183;28;20395;-78
2022/02/12 01:13:03;;;;;;;11.73;5.37;;;;;;;;;;5039175;28;20422;-78
2022/02/12 01:15:29;;;;;;;5.83;4.77;;;;;;;;;;5041380;28;20410;-78
2022/02/12 01:17:55;;;;;;;6.27;4.60;;;;;;;;;;5042111;28;20461;-78
2022/02/12 01:20:21;;;;;;;6.20;5.47;;;;;;;;;;5038944;28;20410;-79
2022/02/12 01:22:48;;;;;;;12.70;5.30;;;;;;;;;;5038756;28;20493;-79
2022/02/12 01:25:15;;;;;;;7.20;5.10;;;;;;;;;;5038913;28;20398;-79
2022/02/12 01:27:41;;;;;;;14.00;5.07;;;;;;;;;;5039697;28;20401;-79
2022/02/12 01:30:07;;;;;;;7.13;4.43;;;;;;;;;;5039528;28;20386;-78
2022/02/12 01:32:33;;;;;;;7.67;4.70;;;;;;;;;;5039280;28;20430;-79
2022/02/12 01:34:59;;;;;;;7.17;4.90;;;;;;;;;;5039367;28;20473;-79
2022/02/12 01:37:25;;;;;;;10.30;5.83;;;;;;;;;;5039147;28;20403;-79
2022/02/12 01:39:52;;;;;;;8.43;4.80;;;;;;;;;;5037866;28;20390;-78
2022/02/12 01:42:18;;;;;;;6.37;4.80;;;;;;;;;;5038684;28;20462;-79
2022/02/12 01:44:44;;;;;;;7.10;5.13;;;;;;;;;;5039389;28;20764;-79
2022/02/12 01:47:11;;;;;;;8.40;5.23;;;;;;;;;;5039353;28;20477;-78
2022/02/12 01:49:38;;;;;;;11.50;6.20;;;;;;;;;;5038807;28;20406;-78
2022/02/12 01:52:08;;;;;;;7.30;5.60;;;;;;;;;;5038367;28;20485;-78
2022/02/12 01:54:35;;;;;;;7.40;4.73;;;;;;;;;;5039070;28;20438;-79
2022/02/12 01:57:02;;;;;;;7.00;6.30;;;;;;;;;;5038476;28;20441;-78
2022/02/12 01:59:28;;;;;;;8.40;5.20;;;;;;;;;;5040017;28;20894;-78
2022/02/12 02:01:54;;;;;;;10.00;5.97;;;;;;;;;;5046054;28;20460;-78
2022/02/12 02:04:20;;;;;;;8.03;4.97;;;;;;;;;;5043128;28;20431;-78
2022/02/12 02:06:50;;;;;;;7.93;5.30;;;;;;;;;;5037745;28;20413;-78
2022/02/12 02:09:17;;;;;;;17.90;6.40;;;;;;;;;;5038307;28;20405;-78
2022/02/12 02:11:43;;;;;;;7.63;5.30;;;;;;;;;;5038779;28;20775;-78
2022/02/12 02:14:10;;;;;;;8.90;5.43;;;;;;;;;;5039980;28;20452;-78
2022/02/12 02:16:37;;;;;;;10.33;5.70;;;;;;;;;;5029184;28;20458;-78
2022/02/12 02:19:03;;;;;;;9.27;5.50;;;;;;;;;;5032451;28;20421;-78
2022/02/12 02:21:29;;;;;;;10.67;5.67;;;;;;;;;;5038852;28;20450;-78
2022/02/12 02:23:55;;;;;;;13.60;6.87;;;;;;;;;;5038248;28;20923;-79
2022/02/12 02:26:21;;;;;;;10.83;6.57;;;;;;;;;;5034860;28;20417;-78
2022/02/12 02:28:48;;;;;;;9.20;6.37;;;;;;;;;;5036267;28;20809;-78
2022/02/12 02:31:14;;;;;;;9.23;6.07;;;;;;;;;;5034854;28;20414;-78
2022/02/12 02:33:40;;;;;;;9.57;6.17;;;;;;;;;;5036005;28;20476;-78
2022/02/12 02:36:06;;;;;;;12.67;5.67;;;;;;;;;;5035383;28;20414;-78
2022/02/12 02:38:33;;;;;;;11.87;6.30;;;;;;;;;;5035385;28;20970;-77
2022/02/12 02:40:59;;;;;;;9.33;6.63;;;;;;;;;;5035730;28;20450;-78
2022/02/12 02:43:25;;;;;;;6.17;5.33;;;;;;;;;;5036117;28;20450;-78
2022/02/12 02:45:52;;;;;;;8.33;5.90;;;;;;;;;;5034999;28;20407;-78
2022/02/12 02:48:18;;;;;;;11.53;5.80;;;;;;;;;;5034313;28;20884;-78
2022/02/12 02:56:14;;;;;;;9.13;6.17;;;;;;;;;;5039414;28;20474;-77
2022/02/12 02:58:47;;;;;;;9.10;5.60;;;;;;;;;;5038606;28;20460;-77
2022/02/12 03:01:13;;;;;;;10.07;5.77;;;;;;;;;;5038563;28;20454;-78
2022/02/12 03:03:40;;;;;;;7.63;5.90;;;;;;;;;;5038498;28;20524;-78
2022/02/12 03:06:06;;;;;;;8.40;5.33;;;;;;;;;;5038811;28;20394;-78
2022/02/12 03:08:32;;;;;;;9.80;5.90;;;;;;;;;;5038092;28;20537;-78
2022/02/12 03:10:59;;;;;;;7.80;5.30;;;;;;;;;;5038902;28;20406;-78
2022/02/12 03:13:26;;;;;;;6.67;5.33;;;;;;;;;;5038439;28;20458;-77
2022/02/12 03:15:52;;;;;;;7.30;6.17;;;;;;;;;;5038431;28;20409;-77
2022/02/12 03:18:18;;;;;;;6.90;5.30;;;;;;;;;;5037142;28;20406;-77
2022/02/12 03:20:44;;;;;;;9.90;6.63;;;;;;;;;;5038109;28;20449;-77
2022/02/12 03:23:10;;;;;;;8.53;5.30;;;;;;;;;;5042624;28;20801;-76
2022/02/12 03:25:36;;;;;;;7.67;5.73;;;;;;;;;;5049659;28;20406;-77
2022/02/12 03:28:04;;;;;;;8.67;5.10;;;;;;;;;;5039084;28;20439;-77
2022/02/12 03:30:34;;;;;;;5.80;5.00;;;;;;;;;;5039326;28;20481;-77
2022/02/12 03:33:00;;;;;;;7.77;5.70;;;;;;;;;;5038029;28;20422;-77
2022/02/12 03:35:27;;;;;;;5.80;5.00;;;;;;;;;;5038380;28;20405;-77
2022/02/12 03:37:54;;;;;;;8.70;5.70;;;;;;;;;;5038319;28;20450;-77
2022/02/12 03:40:21;;;;;;;13.43;5.90;;;;;;;;;;5037872;28;20802;-77
2022/02/12 03:42:47;;;;;;;12.20;5.30;;;;;;;;;;5037825;28;20540;-77
2022/02/12 03:45:14;;;;;;;9.40;4.90;;;;;;;;;;5038136;28;20406;-77
2022/02/12 03:47:40;;;;;;;7.73;5.43;;;;;;;;;;5030467;28;20525;-77
2022/02/12 03:50:07;;;;;;;7.37;5.60;;;;;;;;;;5017829;28;20725;-77
2022/02/12 03:52:33;;;;;;;6.37;4.77;;;;;;;;;;5019947;28;20442;-77
2022/02/12 03:54:59;;;;;;;8.10;5.80;;;;;;;;;;5031963;28;20858;-77
2022/02/12 03:57:25;;;;;;;7.00;5.63;;;;;;;;;;5017926;28;20422;-77
2022/02/12 03:59:51;;;;;;;7.60;5.43;;;;;;;;;;5017827;28;20750;-77
2022/02/12 04:02:17;;;;;;;7.43;4.93;;;;;;;;;;5017740;28;20965;-77
2022/02/12 04:04:43;;;;;;;9.07;5.73;;;;;;;;;;5019558;28;20478;-78
2022/02/12 04:07:09;;;;;;;7.03;5.03;;;;;;;;;;5020062;28;20416;-77
2022/02/12 04:09:35;;;;;;;8.00;5.20;;;;;;;;;;5017711;28;20430;-78
2022/02/12 04:12:01;;;;;;;7.93;5.93;;;;;;;;;;5017225;28;20418;-78
2022/02/12 04:14:27;;;;;;;7.20;5.60;;;;;;;;;;5017023;28;20427;-78
2022/02/12 04:16:53;;;;;;;9.00;5.47;;;;;;;;;;5017255;28;20438;-78
2022/02/12 04:19:19;;;;;;;9.90;5.60;;;;;;;;;;5017619;28;20399;-78
2022/02/12 04:21:45;;;;;;;8.03;5.13;;;;;;;;;;5017312;28;20501;-78
2022/02/12 04:24:11;;;;;;;6.30;4.80;;;;;;;;;;5016835;28;20458;-77
2022/02/12 04:26:37;;;;;;;8.47;5.00;;;;;;;;;;5025833;28;20426;-78
2022/02/12 04:29:03;;;;;;;6.53;5.00;;;;;;;;;;5036796;28;20819;-77
2022/02/12 04:31:30;;;;;;;7.43;5.43;;;;;;;;;;5035296;28;20435;-77
2022/02/12 04:33:56;;;;;;;8.30;5.13;;;;;;;;;;5036688;28;20516;-77
2022/02/12 04:36:22;;;;;;;5.87;5.00;;;;;;;;;;5036746;28;20399;-77
2022/02/12 04:38:48;;;;;;;8.63;5.17;;;;;;;;;;5036857;28;20486;-77
2022/02/12 04:41:14;;;;;;;8.23;5.37;;;;;;;;;;5036621;28;20460;-77
2022/02/12 04:43:40;;;;;;;8.67;5.90;;;;;;;;;;5036529;28;20438;-77
2022/02/12 04:46:06;;;;;;;12.33;4.90;;;;;;;;;;5038558;28;20398;-78
2022/02/12 04:48:32;;;;;;;7.17;5.53;;;;;;;;;;5040681;28;20404;-78
2022/02/12 04:50:58;;;;;;;14.07;5.47;;;;;;;;;;5040379;28;20493;-78
2022/02/12 04:53:24;;;;;;;8.63;4.77;;;;;;;;;;5039768;28;20424;-78
2022/02/12 04:55:51;;;;;;;8.53;4.83;;;;;;;;;;5039756;28;20838;-78
2022/02/12 04:58:17;;;;;;;9.97;5.53;;;;;;;;;;5046570;28;20470;-78
2022/02/12 05:00:43;;;;;;;7.67;5.37;;;;;;;;;;5045820;28;20457;-78
2022/02/12 05:03:09;;;;;;;6.30;4.90;;;;;;;;;;5044614;28;20415;-78
2022/02/12 05:05:35;;;;;;;6.20;4.70;;;;;;;;;;5038758;28;20398;-78
2022/02/12 05:08:01;;;;;;;7.20;4.60;;;;;;;;;;5045319;28;20474;-78
2022/02/12 05:10:27;;;;;;;8.83;6.10;;;;;;;;;;5041500;28;20449;-77
2022/02/12 05:12:53;;;;;;;7.00;4.93;;;;;;;;;;5037355;28;20418;-77
2022/02/12 05:15:19;;;;;;;6.27;4.83;;;;;;;;;;5034722;28;20882;-77
2022/02/12 05:17:45;;;;;;;6.97;5.43;;;;;;;;;;5035341;28;20872;-77
2022/02/12 05:20:12;;;;;;;6.20;4.50;;;;;;;;;;5035864;28;20414;-77
2022/02/12 05:22:38;;;;;;;5.87;4.23;;;;;;;;;;5036694;28;20875;-78
2022/02/12 05:25:05;;;;;;;6.37;4.60;;;;;;;;;;5035664;28;20747;-77
2022/02/12 05:27:32;;;;;;;6.80;5.47;;;;;;;;;;5035082;28;20414;-78
2022/02/12 05:29:58;;;;;;;5.63;4.80;;;;;;;;;;5036302;28;20475;-77
2022/02/12 05:32:25;;;;;;;7.60;4.87;;;;;;;;;;5035813;28;20438;-77
2022/02/12 05:34:51;;;;;;;10.33;5.73;;;;;;;;;;5035582;28;20418;-77
2022/02/12 05:37:18;;;;;;;7.20;4.90;;;;;;;;;;5035314;28;20411;-78
2022/02/12 05:39:44;;;;;;;7.93;5.20;;;;;;;;;;5036529;28;20407;-78
2022/02/12 05:42:10;;;;;;;5.53;4.80;;;;;;;;;;5035326;28;20458;-78
2022/02/12 05:44:36;;;;;;;9.63;4.63;;;;;;;;;;5035887;28;20434;-78
2022/02/12 05:47:02;;;;;;;6.80;4.60;;;;;;;;;;5035626;28;20399;-78
2022/02/12 05:49:28;;;;;;;6.60;5.03;;;;;;;;;;5035408;28;20402;-78
2022/02/12 05:51:54;;;;;;;7.70;4.33;;;;;;;;;;5034430;28;20414;-78
2022/02/12 05:54:20;;;;;;;11.47;5.40;;;;;;;;;;5035471;28;20437;-78
2022/02/12 05:56:46;;;;;;;6.67;5.03;;;;;;;;;;5035449;28;20407;-78
2022/02/12 05:59:13;;;;;;;6.50;4.20;;;;;;;;;;5035432;28;20395;-78
2022/02/12 06:01:42;;;;;;;7.87;5.00;;;;;;;;;;5035442;28;20457;-77
2022/02/12 06:04:09;;;;;;;5.30;4.80;;;;;;;;;;5034209;28;20463;-78
2022/02/12 06:06:35;;;;;;;6.73;4.10;;;;;;;;;;5035196;28;20898;-78
2022/02/12 06:09:02;;;;;;;5.03;3.77;;;;;;;;;;5035942;28;20956;-77
2022/02/12 06:11:28;;;;;;;6.83;4.80;;;;;;;;;;5035295;28;20407;-78
2022/02/12 06:13:54;;;;;;;5.73;4.30;;;;;;;;;;5034760;28;20425;-77
2022/02/12 06:16:21;;;;;;;5.37;4.00;;;;;;;;;;5034963;28;20452;-78
2022/02/12 06:18:47;;;;;;;7.93;4.80;;;;;;;;;;5034662;28;20403;-78
2022/02/12 06:21:13;;;;;;;10.50;4.80;;;;;;;;;;5034466;28;20461;-78
2022/02/12 06:23:39;;;;;;;4.47;3.70;;;;;;;;;;5033629;28;20784;-78
2022/02/12 06:26:06;;;;;;;5.77;4.23;;;;;;;;;;5034853;28;20394;-78
2022/02/12 06:28:32;;;;;;;9.60;4.40;;;;;;;;;;5035080;28;20401;-78
2022/02/12 06:31:01;;;;;;;7.13;4.47;;;;;;;;;;5034965;28;20433;-78
2022/02/12 06:33:27;;;;;;;7.43;4.67;;;;;;;;;;5035653;28;20437;-77
2022/02/12 06:35:53;;;;;;;4.83;3.63;;;;;;;;;;5035276;28;20403;-78
2022/02/12 06:38:19;;;;;;;7.03;5.23;;;;;;;;;;5034427;28;20403;-77
2022/02/12 06:40:46;;;;;;;7.70;4.50;;;;;;;;;;5033974;28;20486;-78
2022/02/12 06:43:12;;;;;;;6.00;4.30;;;;;;;;;;5034267;28;20442;-78
2022/02/12 06:45:39;;;;;;;7.23;4.90;;;;;;;;;;5034510;28;20830;-77
2022/02/12 06:48:05;;;;;;;9.70;5.00;;;;;;;;;;5035188;28;20402;-77
2022/02/12 06:50:32;;;;;;;10.07;4.87;;;;;;;;;;5034718;28;20404;-78
2022/02/12 06:52:59;;;;;;;6.07;4.23;;;;;;;;;;5034595;28;20926;-78
2022/02/12 06:55:25;;;;;;;6.03;4.37;;;;;;;;;;5034693;28;20484;-77
2022/02/12 06:57:52;;;;;;;7.53;4.63;;;;;;;;;;5034020;28;20426;-77
2022/02/12 07:00:19;;;;;;;13.90;5.20;;;;;;;;;;5034222;28;20405;-77
2022/02/12 07:02:46;;;;;;;6.47;5.40;;;;;;;;;;5034358;28;20508;-77
2022/02/12 07:05:12;;;;;;;7.00;4.90;;;;;;;;;;5034445;28;20751;-78
2022/02/12 07:07:46;;;;;;;5.43;4.43;;;;;;;;;;5034294;28;20395;-77
2022/02/12 07:10:12;;;;;;;7.33;4.83;;;;;;;;;;5033897;28;20402;-77
2022/02/12 07:12:38;;;;;;;7.90;4.50;;;;;;;;;;5033765;28;20430;-78
2022/02/12 07:15:04;;;;;;;8.70;4.80;;;;;;;;;;5034418;28;20406;-78
2022/02/12 07:17:30;;;;;;;5.40;4.30;;;;;;;;;;5034114;28;20418;-78
2022/02/12 07:19:56;;;;;;;7.37;4.60;;;;;;;;;;5033871;28;20778;-77
2022/02/12 07:22:26;;;;;;;9.50;5.63;;;;;;;;;;5033703;28;20954;-77
2022/02/12 07:24:52;;;;;;;5.53;4.67;;;;;;;;;;5033844;28;20903;-77
2022/02/12 07:27:19;;;;;;;12.10;5.57;;;;;;;;;;5033907;28;20915;-78
2022/02/12 07:29:45;;;;;;;8.00;6.03;;;;;;;;;;5034208;28;20399;-77
2022/02/12 07:32:11;;;;;;;6.43;5.03;;;;;;;;;;5032411;28;20418;-77
2022/02/12 07:34:37;;;;;;;5.10;4.13;;;;;;;;;;5034025;28;20438;-78
2022/02/12 07:37:03;;;;;;;7.70;5.40;;;;;;;;;;5033900;28;20432;-78
2022/02/12 07:39:29;;;;;;;14.07;5.50;;;;;;;;;;5036327;28;20509;-77
2022/02/12 07:41:56;;;;;;;8.43;5.60;;;;;;;;;;5037587;28;20814;-77
2022/02/12 07:44:22;;;;;;;7.40;5.67;;;;;;;;;;5037566;28;20462;-77
2022/02/12 07:46:48;;;;;;;7.47;5.77;;;;;;;;;;5037686;28;20398;-77
2022/02/12 07:49:14;;;;;;;6.73;4.80;;;;;;;;;;5037538;28;20407;-77
2022/02/12 07:51:40;;;;;;;8.50;6.20;;;;;;;;;;5037017;28;20426;-77
2022/02/12 07:54:06;;;;;;;8.77;5.47;;;;;;;;;;5041771;28;20430;-77
2022/02/12 07:56:32;;;;;;;10.13;6.20;;;;;;;;;;5055263;28;20422;-78
2022/02/12 07:58:58;;;;;;;11.33;5.27;;;;;;;;;;5054147;28;20486;-78
2022/02/12 08:01:24;;;;;;;12.63;6.70;;;;;;;;;;5042943;28;20985;-78
2022/02/12 08:03:50;;;;;;;7.60;6.10;;;;;;;;;;5042365;28;20515;-77
2022/02/12 08:09:01;;;;;;;10.20;6.57;;;;;;;;;;5041291;28;20509;-78
2022/02/12 08:11:34;;;;;;;8.90;5.90;;;;;;;;;;5039317;28;20486;-77
2022/02/12 08:14:00;;;;;;;10.63;5.77;;;;;;;;;;5039402;28;20422;-79
2022/02/12 08:16:26;;;;;;;8.85;6.68;;;;;;;;;;5037765;28;20418;-78
2022/02/12 08:18:52;;;;;;;13.25;6.68;;;;;;;;;;5036852;28;20397;-77
2022/02/12 08:21:18;;;;;;;8.00;5.67;;;;;;;;;;5035654;28;20671;-77
2022/02/12 08:23:44;;;;;;;7.07;5.73;;;;;;;;;;5044362;28;20509;-78
2022/02/12 08:26:10;;;;;;;8.10;5.83;;;;;;;;;;5045482;28;20947;-78
2022/02/12 08:28:37;;;;;;;8.63;6.70;;;;;;;;;;5057350;28;20405;-78
2022/02/12 08:31:03;;;;;;;10.03;5.60;;;;;;;;;;5056882;28;20480;-77
2022/02/12 08:33:30;;;;;;;8.13;5.63;;;;;;;;;;5049434;28;20442;-79
2022/02/12 08:35:56;;;;;;;10.67;6.20;;;;;;;;;;5039320;28;20501;-78
2022/02/12 08:38:22;;;;;;;11.30;5.70;;;;;;;;;;5039479;28;20970;-78
2022/02/12 08:40:48;;;;;;;9.87;6.50;;;;;;;;;;5058054;23;20497;-75
2022/02/12 08:43:15;;;;;;;9.67;5.60;;;;;;;;;;5035310;28;20479;-75
2022/02/12 08:45:41;;;;;;;9.10;6.60;;;;;;;;;;5034242;28;20421;-75
2022/02/12 08:48:09;;;;;;;11.37;6.23;;;;;;;;;;5034620;28;20902;-74
2022/02/12 08:50:35;;;;;;;10.17;5.27;;;;;;;;;;5026093;28;20453;-75
2022/02/12 08:53:01;;;;;;;11.80;5.63;;;;;;;;;;5034902;28;20415;-77
2022/02/12 08:55:28;;;;;;;10.10;5.53;;;;;;;;;;5027003;28;20429;-76
2022/02/12 08:57:55;;;;;;;7.37;5.40;;;;;;;;;;5032858;28;20829;-76
2022/02/12 09:00:21;;;;;;;6.70;4.95;;;;;;;;;;5034315;28;20420;-74
2022/02/12 09:02:47;;;;;;;6.40;5.07;;;;;;;;;;5034600;28;20195;-74
2022/02/12 09:05:14;;;;;;;7.03;5.53;;;;;;;;;;5033730;28;20944;-74
2022/02/12 09:07:40;;;;;;;8.30;5.30;;;;;;;;;;5034713;28;20267;-74
2022/02/12 09:10:06;;;;;;;6.40;5.07;;;;;;;;;;5033838;28;20443;-74
2022/02/12 09:12:32;;;;;;;8.63;5.80;;;;;;;;;;5034118;28;20788;-75
2022/02/12 09:14:58;;;;;;;8.97;6.03;;;;;;;;;;5034157;28;20445;-74
2022/02/12 09:17:25;;;;;;;7.00;5.20;;;;;;;;;;5033969;28;20427;-74
2022/02/12 09:19:51;;;;;;;7.03;4.60;;;;;;;;;;5033521;28;20838;-74
2022/02/12 09:22:17;;;;;;;7.63;5.30;;;;;;;;;;5035073;28;20450;-74
2022/02/12 09:24:43;;;;;;;9.90;4.60;;;;;;;;;;5036723;28;20887;-75
2022/02/12 09:27:09;;;;;;;7.33;4.50;;;;;;;;;;5036815;28;20410;-75
2022/02/12 09:29:36;;;;;;;4.40;3.73;;;;;;;;;;5035502;28;20431;-77
2022/02/12 09:32:02;;;;;;;8.60;3.50;;;;;;;;;;5033295;28;20445;-77
2022/02/12 09:34:28;;;;;;;11.67;4.20;;;;;;;;;;5033847;28;20167;-76
2022/02/12 09:36:54;;;;;;;4.80;3.17;;;;;;;;;;5033720;28;20432;-74
2022/02/12 09:39:20;;;;;;;4.77;3.90;;;;;;;;;;5033946;28;20453;-74
2022/02/12 09:41:46;;;;;;;7.53;4.23;;;;;;;;;;5036277;28;20532;-74
2022/02/12 09:44:12;;;;;;;6.10;4.17;;;;;;;;;;5036126;28;20498;-75
2022/02/12 09:46:41;;;;;;;7.67;3.50;;;;;;;;;;5035860;28;20402;-75
2022/02/12 09:49:08;;;;;;;7.67;3.77;;;;;;;;;;5035353;28;20906;-74
2022/02/12 09:51:35;;;;;;;7.10;4.00;;;;;;;;;;5036501;28;20414;-76
2022/02/12 09:54:02;;;;;;;5.10;3.83;;;;;;;;;;5034949;28;20414;-76
2022/02/12 09:56:28;;;;;;;4.53;3.90;;;;;;;;;;5034069;28;20441;-75
2022/02/12 09:58:54;;;;;;;4.83;3.47;;;;;;;;;;5032150;28;20512;-74
2022/02/12 10:01:21;;;;;;;5.23;3.47;;;;;;;;;;5036716;28;20457;-75
2022/02/12 10:03:49;;;;;;;4.93;3.23;;;;;;;;;;5033062;28;20465;-76
2022/02/12 10:06:15;;;;;;;7.87;3.57;;;;;;;;;;5032226;28;20407;-77
2022/02/12 10:09:01;;;;;;;5.75;3.35;;;;;;;;;;5032656;28;20509;-75
2022/02/12 10:11:38;;;;;;;5.30;3.40;;;;;;;;;;5034868;28;20168;-75
2022/02/12 10:14:08;;;;;;;7.10;3.10;;;;;;;;;;5030803;28;20786;-76
2022/02/12 10:16:54;;;;;;;5.00;3.07;;;;;;;;;;5036533;28;20406;-76
2022/02/12 10:19:30;;;;;;;5.37;3.07;;;;;;;;;;5027491;28;20442;-76
2022/02/12 10:22:09;;;;;;;5.93;2.90;;;;;;;;;;5032855;28;20499;-76
2022/02/12 10:24:45;;;;;;;4.63;2.53;;;;;;;;;;5036118;28;20461;-75
2022/02/12 10:27:11;;;;;;;7.67;3.20;;;;;;;;;;5024802;28;20419;-75
2022/02/12 10:29:37;;;;;;;4.13;3.10;;;;;;;;;;5034377;28;20517;-76
2022/02/12 10:32:03;;;;;;;6.10;2.57;;;;;;;;;;5035403;28;20500;-76
2022/02/12 10:34:40;;;;;;;4.33;2.83;;;;;;;;;;5035794;28;20415;-75
2022/02/12 10:37:06;;;;;;;3.40;2.80;;;;;;;;;;5034485;28;20414;-76
2022/02/12 10:39:38;;;;;;;4.00;2.67;;;;;;;;;;5030880;28;20467;-77
2022/02/12 10:42:07;;;;;;;6.03;2.40;;;;;;;;;;5033239;28;20454;-77
2022/02/12 10:44:34;;;;;;;8.83;2.60;;;;;;;;;;5032214;28;20446;-76
2022/02/12 10:47:00;;;;;;;3.43;2.27;;;;;;;;;;5035418;28;20507;-77
2022/02/12 10:49:26;;;;;;;3.30;2.40;;;;;;;;;;5034684;28;20451;-76
2022/02/12 10:51:53;;;;;;;5.97;2.87;;;;;;;;;;5032874;28;20426;-75
2022/02/12 10:54:19;;;;;;;5.50;2.77;;;;;;;;;;5033137;28;20407;-76
2022/02/12 10:56:46;;;;;;;3.47;2.37;;;;;;;;;;5033179;28;20418;-76
2022/02/12 10:59:12;;;;;;;6.87;2.57;;;;;;;;;;5032550;28;20560;-76
2022/02/12 11:01:39;;;;;;;4.20;2.63;;;;;;;;;;5033708;28;21031;-76
2022/02/12 11:04:06;;;;;;;2.60;2.37;;;;;;;;;;5033926;28;20415;-76
2022/02/12 11:06:32;;;;;;;4.63;2.73;;;;;;;;;;5033684;28;20413;-76
2022/02/12 11:08:58;;;;;;;4.73;2.13;;;;;;;;;;5042879;28;20460;-76
2022/02/12 11:11:25;;;;;;;4.93;2.25;;;;;;;;;;5032866;28;20870;-76
2022/02/12 11:13:52;;;;;;;4.00;2.60;;;;;;;;;;5035225;28;20179;-76
2022/02/12 11:16:19;;;;;;;3.53;2.63;;;;;;;;;;5037892;28;20433;-76
2022/02/12 11:18:45;;;;;;;5.78;2.40;;;;;;;;;;5036178;28;20420;-76
2022/02/12 11:21:11;;;;;;;4.53;2.80;;;;;;;;;;5035638;28;20198;-76
2022/02/12 11:23:37;;;;;;;8.20;3.57;;;;;;;;;;5037040;28;20402;-76
2022/02/12 11:26:03;;;;;;;3.77;3.10;;;;;;;;;;5035703;28;20438;-76
2022/02/12 11:28:31;;;;;;;4.33;2.73;;;;;;;;;;5036390;28;20770;-76
2022/02/12 11:31:20;;;;;;;4.57;2.87;;;;;;;;;;5035842;28;21008;-76
2022/02/12 11:34:05;;;;;;;3.60;2.47;;;;;;;;;;5030769;28;20438;-75
2022/02/12 11:36:32;;;;;;;5.10;2.33;;;;;;;;;;5036047;28;20434;-76
2022/02/12 11:39:13;;;;;;;4.18;2.55;;;;;;;;;;5036166;28;20510;-76
2022/02/12 11:41:40;;;;;;;2.90;1.95;;;;;;;;;;5030175;28;20480;-75
2022/02/12 11:44:07;;;;;;;4.10;2.53;;;;;;;;;;5036311;28;20640;-75
2022/02/12 11:46:42;;;;;;;3.90;2.20;;;;;;;;;;5036053;28;20406;-75
2022/02/12 11:49:27;;;;;;;4.00;2.10;;;;;;;;;;5036793;28;20417;-75
2022/02/12 11:51:53;;;;;;;3.23;2.70;;;;;;;;;;5036039;28;21076;-75
2022/02/12 11:54:38;;;;;;;3.83;2.60;;;;;;;;;;5036257;28;20414;-74
2022/02/12 11:57:04;;;;;;;2.70;2.00;;;;;;;;;;5035587;28;21063;-74
2022/02/12 11:59:30;;;;;;;3.17;2.17;;;;;;;;;;5035920;28;20442;-75
2022/02/12 12:01:57;;;;;;;3.93;2.70;;;;;;;;;;5034918;28;20458;-76
2022/02/12 12:04:25;;;;;;;2.73;2.10;;;;;;;;;;5036267;28;20410;-76
2022/02/12 12:07:01;;;;;;;4.83;2.53;;;;;;;;;;5035738;28;20787;-75
2022/02/12 12:09:31;;;;;;;3.07;2.10;;;;;;;;;;5034396;28;20469;-75
2022/02/12 12:12:12;;;;;;;2.90;2.50;;;;;;;;;;5036232;28;20423;-76
2022/02/12 12:14:38;;;;;;;4.67;2.40;;;;;;;;;;5036159;28;20434;-76
2022/02/12 12:17:04;;;;;;;4.23;2.53;;;;;;;;;;5035644;28;20415;-77
2022/02/12 12:19:31;;;;;;;14.50;3.00;;;;;;;;;;5035905;28;20795;-76
2022/02/12 12:21:58;;;;;;;4.80;2.67;;;;;;;;;;5035759;28;20549;-73
2022/02/12 12:24:24;;;;;;;4.10;2.20;;;;;;;;;;5034040;28;20532;-76
2022/02/12 12:26:50;;;;;;;5.17;3.00;;;;;;;;;;5035288;28;20160;-76
2022/02/12 12:32:13;;;;;;;7.07;2.77;;;;;;;;;;5036170;28;20406;-77
2022/02/12 12:34:50;;;;;;;2.90;2.40;;;;;;;;;;5036094;28;20433;-76
2022/02/12 12:37:16;;;;;;;2.93;2.63;;;;;;;;;;5035343;28;20455;-75
2022/02/12 12:39:43;;;;;;;6.17;3.20;;;;;;;;;;5035496;28;21005;-76
2022/02/12 12:42:15;;;;;;;4.93;2.33;;;;;;;;;;5035296;28;20996;-76
2022/02/12 12:44:42;;;;;;;4.97;3.10;;;;;;;;;;5034804;28;20414;-76
2022/02/12 12:47:08;;;;;;;4.70;2.50;;;;;;;;;;5034532;28;20549;-75
2022/02/12 12:49:39;;;;;;;3.80;2.80;;;;;;;;;;5035009;28;20439;-75
2022/02/12 12:52:06;;;;;;;3.13;2.43;;;;;;;;;;5035857;28;20394;-74
2022/02/12 12:54:33;;;;;;;5.20;2.80;;;;;;;;;;5034341;28;20418;-75
2022/02/12 12:57:00;;;;;;;4.33;2.30;;;;;;;;;;5034071;28;20506;-75
2022/02/12 12:59:26;;;;;;;3.20;2.50;;;;;;;;;;5034386;28;20439;-76
2022/02/12 13:02:01;;;;;;;4.60;2.90;;;;;;;;;;5035330;28;20464;-76
2022/02/12 13:04:27;;;;;;;3.17;2.40;;;;;;;;;;5036057;28;20403;-75
2022/02/12 13:06:54;;;;;;;3.67;2.30;;;;;;;;;;5035199;28;20414;-76
2022/02/12 13:09:20;;;;;;;4.83;2.87;;;;;;;;;;5034382;28;20439;-77
2022/02/12 13:11:47;;;;;;;4.70;2.57;;;;;;;;;;5034771;28;20485;-77
2022/02/12 13:14:13;;;;;;;5.35;2.85;;;;;;;;;;5033631;28;20845;-77
2022/02/12 13:16:40;;;;;;;4.10;2.30;;;;;;;;;;5033616;28;21104;-76
2022/02/12 13:19:13;;;;;;;4.30;3.03;;;;;;;;;;5033850;28;20805;-76
2022/02/12 13:21:50;;;;;;;7.33;2.60;;;;;;;;;;5033679;28;20450;-76
2022/02/12 13:24:16;;;;;;;5.43;2.87;;;;;;;;;;5035314;28;20894;-75
2022/02/12 13:26:43;;;;;;;4.40;3.23;;;;;;;;;;5034901;28;20422;-76
2022/02/12 13:29:23;;;;;;;4.17;3.20;;;;;;;;;;5035005;28;20462;-75
2022/02/12 13:31:57;;;;;;;4.33;2.90;;;;;;;;;;5035382;28;20803;-75
2022/02/12 13:34:27;;;;;;;5.27;3.63;;;;;;;;;;5034856;28;20382;-76
2022/02/12 13:36:55;;;;;;;4.83;3.60;;;;;;;;;;5034058;28;20410;-76
2022/02/12 13:39:21;;;;;;;3.27;2.47;;;;;;;;;;5034291;28;20484;-77
2022/02/12 13:41:52;;;;;;;5.07;3.40;;;;;;;;;;5034703;28;20454;-76
2022/02/12 13:44:30;;;;;;;3.37;2.53;;;;;;;;;;5034589;28;20961;-76
2022/02/12 13:46:57;;;;;;;3.23;2.73;;;;;;;;;;5033494;28;20784;-75
2022/02/12 13:49:27;;;;;;;5.93;2.87;;;;;;;;;;5041137;28;20436;-76
2022/02/12 13:51:58;;;;;;;5.07;3.47;;;;;;;;;;5034703;28;20406;-77
2022/02/12 13:54:24;;;;;;;6.75;3.10;;;;;;;;;;5032827;28;20482;-75
2022/02/12 13:56:52;;;;;;;5.27;3.13;;;;;;;;;;5033012;28;20799;-76
2022/02/12 13:59:19;;;;;;;3.80;2.80;;;;;;;;;;5033334;28;21030;-75
2022/02/12 14:01:46;;;;;;;4.60;3.60;;;;;;;;;;5033508;28;20457;-75
2022/02/12 14:04:13;;;;;;;5.10;2.70;;;;;;;;;;5033958;28;20406;-75
2022/02/12 14:06:39;;;;;;;5.07;3.20;;;;;;;;;;5034367;28;20426;-75
2022/02/12 14:09:07;;;;;;;5.90;3.80;;;;;;;;;;5034009;28;20464;-75
2022/02/12 14:11:33;;;;;;;7.00;3.67;;;;;;;;;;5033729;28;20440;-75
2022/02/12 14:13:59;;;;;;;8.10;2.70;;;;;;;;;;5033916;28;20432;-75
2022/02/12 14:16:25;;;;;;;4.30;3.17;;;;;;;;;;5034102;28;20407;-75
2022/02/12 14:18:51;;;;;;;4.50;3.37;;;;;;;;;;5032848;28;20402;-75
2022/02/12 14:21:18;;;;;;;8.30;3.43;;;;;;;;;;5032482;28;20458;-75
2022/02/12 14:23:44;;;;;;;5.87;3.43;;;;;;;;;;5033282;28;20409;-76
2022/02/12 14:26:10;;;;;;;3.83;2.90;;;;;;;;;;5033351;28;20434;-77
2022/02/12 14:28:36;;;;;;;4.13;2.80;;;;;;;;;;5033467;28;20764;-76
2022/02/12 14:31:02;;;;;;;4.53;3.17;;;;;;;;;;5033127;28;20493;-75
2022/02/12 14:33:32;;;;;;;5.30;3.33;;;;;;;;;;5033676;28;20464;-76
2022/02/12 14:35:59;;;;;;;5.17;3.00;;;;;;;;;;5029541;28;20436;-76
2022/02/12 14:38:25;;;;;;;8.60;3.43;;;;;;;;;;5033297;28;20433;-75
2022/02/12 14:40:51;;;;;;;5.40;2.90;;;;;;;;;;5032953;28;20442;-76
2022/02/12 14:43:17;;;;;;;5.77;3.10;;;;;;;;;;5033111;28;20406;-76
2022/02/12 14:45:43;;;;;;;4.32;2.83;;;;;;;;;;5032400;28;20496;-76
2022/02/12 14:48:10;;;;;;;6.67;3.50;;;;;;;;;;5032925;28;20183;-76
2022/02/12 14:50:36;;;;;;;5.18;3.58;;;;;;;;;;5030210;28;20422;-75